Rosalia — D5LN8 — position and weather

sailwx.info

Track history (hours):
 
Tides and Currents Weather Stations Pressure Air Temp Water Temp Dewpoint Dewpoint Depression Visibility Wind Speed Wind Dir Waves Ship Positions

Rosalia

Last reported at 2017-Oct-04 01:48 UTC. Time now 2017-Oct-19 16:56 UTC.
Position N 33°59' E 134°56'.
Warning: this ship's position is 15 days out of date.

Length 180 m; draft 8.4 m.

Type: Ship. MMSI: 636017559.

Date/timePositionNaut miles runAvg speedWind from/ knotsBaromVisibWave heightAir tempDewpointWater temp
2017-Oct-04 01:48N 33°59' E 134°56'412.3
2017-Oct-04 01:28N 34°03' E 134°57'612.9
2017-Oct-04 01:00N 34°09' E 134°58'611.7
2017-Oct-04 00:30N 34°15' E 134°58'710.9
2017-Oct-03 23:55N 34°21' E 134°60'511.7
2017-Oct-03 23:28N 34°25' E 135°03'612.3
2017-Oct-03 22:59N 34°29' E 135°09'612.3
2017-Oct-03 22:30N 34°32' E 135°15'611.9
2017-Oct-03 22:00N 34°36' E 135°20'3 7.1
2017-Oct-03 21:30N 34°38' E 135°24'0 0.0
2017-Oct-02 10:17N 34°38' E 135°24'0 0.0
2017-Oct-02 09:53N 34°38' E 135°24'0 0.0
2017-Oct-02 00:41N 34°38' E 135°24'0 0.1
2017-Oct-02 00:17N 34°38' E 135°24'0 0.0
2017-Oct-01 23:23N 34°38' E 135°24'0 0.3
2017-Oct-01 23:00N 34°38' E 135°24'2 3.9
2017-Oct-01 22:30N 34°37' E 135°22'3 5.8
2017-Oct-01 22:00N 34°36' E 135°19'1 1.7
2017-Oct-01 21:27N 34°36' E 135°18'0 0.0
2017-Oct-01 20:57N 34°36' E 135°18'0 0.1
2017-Oct-01 20:27N 34°36' E 135°18'0 0.0
2017-Oct-01 19:57N 34°36' E 135°18'0 0.0
2017-Oct-01 19:27N 34°36' E 135°18'0 0.0
2017-Oct-01 18:57N 34°36' E 135°18'0 0.0
2017-Oct-01 18:21N 34°36' E 135°18'0 0.2
2017-Oct-01 18:00N 34°36' E 135°18'0 0.0
2017-Oct-01 17:25N 34°36' E 135°18'0 0.0
2017-Oct-01 16:55N 34°36' E 135°18'0 0.0
2017-Oct-01 16:25N 34°36' E 135°18'0 0.0
2017-Oct-01 15:55N 34°36' E 135°18'0 0.1
2017-Oct-01 15:25N 34°36' E 135°18'0 0.0
2017-Oct-01 14:55N 34°36' E 135°18'0 0.0
2017-Oct-01 14:25N 34°36' E 135°18'0 0.0
2017-Oct-01 13:49N 34°36' E 135°18'0 0.0
2017-Oct-01 13:25N 34°36' E 135°18'0 0.0
2017-Oct-01 12:55N 34°36' E 135°18'0 0.1
2017-Oct-01 12:25N 34°36' E 135°18'0 0.0
2017-Oct-01 11:49N 34°36' E 135°18'0 0.0
2017-Oct-01 11:25N 34°36' E 135°18'0 0.2
2017-Oct-01 10:55N 34°36' E 135°18'0 0.2
2017-Oct-01 10:25N 34°36' E 135°18'0 0.1
2017-Oct-01 09:55N 34°36' E 135°18'0 0.0
2017-Oct-01 09:25N 34°36' E 135°18'0 0.0
2017-Oct-01 08:55N 34°36' E 135°18'0 0.0
2017-Oct-01 08:13N 34°36' E 135°18'0 0.0
2017-Oct-01 07:37N 34°36' E 135°18'0 0.0
2017-Oct-01 07:25N 34°36' E 135°18'0 0.0
2017-Oct-01 06:55N 34°36' E 135°18'0 0.0
2017-Oct-01 06:25N 34°36' E 135°18'0 0.0
2017-Oct-01 05:55N 34°36' E 135°18'0 0.0
2017-Oct-01 05:25N 34°36' E 135°18'0 0.0
2017-Oct-01 04:43N 34°36' E 135°18'0 0.0
2017-Oct-01 04:25N 34°36' E 135°18'0 0.1
2017-Oct-01 03:55N 34°36' E 135°18'0 0.0
2017-Oct-01 03:25N 34°36' E 135°18'0 0.0
2017-Oct-01 02:49N 34°36' E 135°18'19 0.8
2017-Sep-30 02:00N 34°37' E 134°55'712.3
2017-Sep-30 01:28N 34°40' E 134°48'1 0.4
2017-Sep-29 22:36N 34°41' E 134°47'0 0.9
2017-Sep-29 22:30N 34°41' E 134°47'1 0.0
2017-Sep-28 12:10N 34°41' E 134°48'1 5.6
2017-Sep-28 12:00N 34°40' E 134°49'0 0.1
2017-Sep-28 05:24N 34°40' E 134°49'0 0.0
2017-Sep-28 05:00N 34°40' E 134°49'0 0.1
2017-Sep-28 04:06N 34°40' E 134°49'0 0.0
2017-Sep-28 03:54N 34°40' E 134°49'0 0.1
2017-Sep-28 01:54N 34°40' E 134°49'0 0.0
2017-Sep-27 22:30N 34°40' E 134°49'0 0.0
2017-Sep-27 22:00N 34°40' E 134°49'0 0.1
2017-Sep-27 21:12N 34°40' E 134°49'0 0.0
2017-Sep-27 21:00N 34°40' E 134°49'0 0.0
2017-Sep-27 19:42N 34°40' E 134°49'0 0.0
2017-Sep-27 19:30N 34°40' E 134°49'0 0.0
2017-Sep-27 18:48N 34°40' E 134°49'0 0.2
2017-Sep-27 18:30N 34°40' E 134°49'0 0.1
2017-Sep-27 18:00N 34°40' E 134°49'0 0.1
2017-Sep-27 17:30N 34°40' E 134°49'0 0.1
2017-Sep-27 17:00N 34°40' E 134°49'0 0.0
2017-Sep-27 16:30N 34°40' E 134°49'0 0.0
2017-Sep-27 16:00N 34°40' E 134°49'0 0.0
2017-Sep-27 15:30N 34°40' E 134°49'0 0.1
2017-Sep-27 14:54N 34°40' E 134°49'0 0.0
2017-Sep-27 14:30N 34°40' E 134°49'0 0.0
2017-Sep-27 14:00N 34°40' E 134°49'0 0.0
2017-Sep-27 13:30N 34°40' E 134°49'0 0.1
2017-Sep-27 13:00N 34°40' E 134°49'0 0.1
2017-Sep-27 12:30N 34°40' E 134°49'0 0.1
2017-Sep-27 11:48N 34°40' E 134°49'0 0.2
2017-Sep-27 11:30N 34°40' E 134°49'0 0.0
2017-Sep-27 11:00N 34°40' E 134°49'0 0.0
2017-Sep-27 01:30N 34°40' E 134°49'0 0.0
2017-Sep-27 00:54N 34°40' E 134°49'0 0.1
2017-Sep-27 00:30N 34°40' E 134°49'0 0.1
2017-Sep-26 22:18N 34°40' E 134°49'0 0.0
2017-Sep-26 20:30N 34°40' E 134°49'0 0.0
2017-Sep-26 20:00N 34°40' E 134°49'0 0.1
2017-Sep-26 19:30N 34°40' E 134°49'0 0.1
2017-Sep-26 18:42N 34°40' E 134°49'0 0.0
2017-Sep-26 15:54N 34°40' E 134°49'0 0.1
2017-Sep-26 14:30N 34°40' E 134°49'0 0.0
2017-Sep-26 14:00N 34°40' E 134°49'0 0.0
2017-Sep-26 09:18N 34°40' E 134°49'0 0.0
2017-Sep-26 08:48N 34°40' E 134°49'0 0.0
2017-Sep-26 00:48N 34°40' E 134°49'0 0.0
2017-Sep-26 00:30N 34°40' E 134°49'0 0.1
2017-Sep-26 00:00N 34°40' E 134°49'0 0.1
2017-Sep-25 23:30N 34°40' E 134°49'0 0.0
2017-Sep-25 21:30N 34°40' E 134°49'0 0.1
2017-Sep-25 21:00N 34°40' E 134°49'0 0.0
2017-Sep-25 20:30N 34°40' E 134°49'0 0.0
2017-Sep-25 19:54N 34°40' E 134°49'0 0.0
2017-Sep-25 19:24N 34°40' E 134°49'0 0.0
2017-Sep-25 19:00N 34°40' E 134°49'0 0.0
2017-Sep-25 18:30N 34°40' E 134°49'0 0.1
2017-Sep-25 18:00N 34°40' E 134°49'0 0.0
2017-Sep-25 16:42N 34°40' E 134°49'0 0.3
2017-Sep-25 16:30N 34°40' E 134°49'0 0.0
2017-Sep-25 16:00N 34°40' E 134°49'0 0.1
2017-Sep-25 15:24N 34°40' E 134°49'0 0.0
2017-Sep-25 15:00N 34°40' E 134°49'0 0.0
2017-Sep-25 14:30N 34°40' E 134°49'0 0.0
2017-Sep-25 12:54N 34°40' E 134°49'0 0.2
2017-Sep-25 12:30N 34°40' E 134°49'0 0.1
2017-Sep-25 12:00N 34°40' E 134°49'0 0.0
2017-Sep-25 08:30N 34°40' E 134°49'0 0.0
2017-Sep-25 07:00N 34°40' E 134°49'0 0.0
2017-Sep-25 06:24N 34°40' E 134°49'0 0.0
2017-Sep-25 04:36N 34°40' E 134°49'0 0.1
2017-Sep-25 04:30N 34°40' E 134°49'0 0.1
2017-Sep-25 04:00N 34°40' E 134°49'0 0.1
2017-Sep-25 03:12N 34°40' E 134°49'0 0.1
2017-Sep-25 02:48N 34°40' E 134°49'0 0.0
2017-Sep-25 02:18N 34°40' E 134°49'0 0.0
2017-Sep-25 02:00N 34°40' E 134°49'0 0.0
2017-Sep-25 01:30N 34°40' E 134°49'0 0.1
2017-Sep-25 01:00N 34°40' E 134°49'0 0.1
2017-Sep-25 00:24N 34°40' E 134°49'0 0.0
2017-Sep-24 23:54N 34°40' E 134°49'0 0.1
2017-Sep-24 23:30N 34°40' E 134°49'0 0.1
2017-Sep-24 23:00N 34°40' E 134°49'0 0.1
2017-Sep-24 21:12N 34°40' E 134°49'0 0.0
2017-Sep-24 21:00N 34°40' E 134°49'0 0.0
2017-Sep-24 20:30N 34°40' E 134°49'0 0.0
2017-Sep-24 20:00N 34°40' E 134°49'0 0.0
2017-Sep-24 19:24N 34°40' E 134°49'0 0.0
2017-Sep-24 18:12N 34°40' E 134°49'0 0.0
2017-Sep-24 18:00N 34°40' E 134°49'0 0.1
2017-Sep-24 17:24N 34°40' E 134°49'0 0.0
2017-Sep-24 17:00N 34°40' E 134°49'0 0.0
2017-Sep-24 16:30N 34°40' E 134°49'0 0.1
2017-Sep-24 15:54N 34°40' E 134°49'0 0.3
2017-Sep-24 15:30N 34°40' E 134°49'0 0.1
2017-Sep-24 15:00N 34°40' E 134°49'0 0.0
2017-Sep-24 13:30N 34°40' E 134°49'0 0.0
2017-Sep-24 13:00N 34°40' E 134°49'0 0.0
2017-Sep-24 12:06N 34°40' E 134°49'0 0.0
2017-Sep-24 11:48N 34°40' E 134°49'0 0.1
2017-Sep-24 10:00N 34°40' E 134°49'0 0.0
2017-Sep-24 08:23N 34°40' E 134°49'4 2.8
2017-Sep-24 06:52N 34°37' E 134°53'5 9.9
2017-Sep-24 06:24N 34°37' E 134°58'3 8.6
2017-Sep-24 06:00N 34°37' E 135°02'5 9.6
2017-Sep-24 05:30N 34°35' E 135°08'2 4.4
2017-Sep-24 05:00N 34°33' E 135°08'3 5.7
2017-Sep-24 04:30N 34°30' E 135°06'5 8.7
2017-Sep-24 03:58N 34°26' E 135°04'612.3
2017-Sep-24 03:30N 34°21' E 135°01'612.4
2017-Sep-24 03:00N 34°15' E 134°59'5 9.6
2017-Sep-24 02:30N 34°10' E 135°00'4 7.3
2017-Sep-24 02:00N 34°06' E 135°01'  
Track history (hours):
 
Tides and Currents Weather Stations Pressure Air Temp Water Temp Dewpoint Dewpoint Depression Visibility Wind Speed Wind Dir Waves Ship Positions

Rosalia

Last reported at 2017-Oct-04 01:48 UTC. Time now 2017-Oct-19 16:56 UTC.
Position N 33°59' E 134°56'.
Warning: this ship's position is 15 days out of date.

Length 180 m; draft 8.4 m.

Type: Ship. MMSI: 636017559.

Date/timePositionNaut miles runAvg speedWind from/ knotsBaromVisibWave heightAir tempDewpointWater temp
2017-Oct-04 01:48N 33°59' E 134°56'412.3
2017-Oct-04 01:28N 34°03' E 134°57'612.9
2017-Oct-04 01:00N 34°09' E 134°58'611.7
2017-Oct-04 00:30N 34°15' E 134°58'710.9
2017-Oct-03 23:55N 34°21' E 134°60'511.7
2017-Oct-03 23:28N 34°25' E 135°03'612.3
2017-Oct-03 22:59N 34°29' E 135°09'612.3
2017-Oct-03 22:30N 34°32' E 135°15'611.9
2017-Oct-03 22:00N 34°36' E 135°20'3 7.1
2017-Oct-03 21:30N 34°38' E 135°24'0 0.0
2017-Oct-02 10:17N 34°38' E 135°24'0 0.0
2017-Oct-02 09:53N 34°38' E 135°24'0 0.0
2017-Oct-02 00:41N 34°38' E 135°24'0 0.1
2017-Oct-02 00:17N 34°38' E 135°24'0 0.0
2017-Oct-01 23:23N 34°38' E 135°24'0 0.3
2017-Oct-01 23:00N 34°38' E 135°24'2 3.9
2017-Oct-01 22:30N 34°37' E 135°22'3 5.8
2017-Oct-01 22:00N 34°36' E 135°19'1 1.7
2017-Oct-01 21:27N 34°36' E 135°18'0 0.0
2017-Oct-01 20:57N 34°36' E 135°18'0 0.1
2017-Oct-01 20:27N 34°36' E 135°18'0 0.0
2017-Oct-01 19:57N 34°36' E 135°18'0 0.0
2017-Oct-01 19:27N 34°36' E 135°18'0 0.0
2017-Oct-01 18:57N 34°36' E 135°18'0 0.0
2017-Oct-01 18:21N 34°36' E 135°18'0 0.2
2017-Oct-01 18:00N 34°36' E 135°18'0 0.0
2017-Oct-01 17:25N 34°36' E 135°18'0 0.0
2017-Oct-01 16:55N 34°36' E 135°18'0 0.0
2017-Oct-01 16:25N 34°36' E 135°18'0 0.0
2017-Oct-01 15:55N 34°36' E 135°18'0 0.1
2017-Oct-01 15:25N 34°36' E 135°18'0 0.0
2017-Oct-01 14:55N 34°36' E 135°18'0 0.0
2017-Oct-01 14:25N 34°36' E 135°18'0 0.0
2017-Oct-01 13:49N 34°36' E 135°18'0 0.0
2017-Oct-01 13:25N 34°36' E 135°18'0 0.0
2017-Oct-01 12:55N 34°36' E 135°18'0 0.1
2017-Oct-01 12:25N 34°36' E 135°18'0 0.0
2017-Oct-01 11:49N 34°36' E 135°18'0 0.0
2017-Oct-01 11:25N 34°36' E 135°18'0 0.2
2017-Oct-01 10:55N 34°36' E 135°18'0 0.2
2017-Oct-01 10:25N 34°36' E 135°18'0 0.1
2017-Oct-01 09:55N 34°36' E 135°18'0 0.0
2017-Oct-01 09:25N 34°36' E 135°18'0 0.0
2017-Oct-01 08:55N 34°36' E 135°18'0 0.0
2017-Oct-01 08:13N 34°36' E 135°18'0 0.0
2017-Oct-01 07:37N 34°36' E 135°18'0 0.0
2017-Oct-01 07:25N 34°36' E 135°18'0 0.0
2017-Oct-01 06:55N 34°36' E 135°18'0 0.0
2017-Oct-01 06:25N 34°36' E 135°18'0 0.0
2017-Oct-01 05:55N 34°36' E 135°18'0 0.0
2017-Oct-01 05:25N 34°36' E 135°18'0 0.0
2017-Oct-01 04:43N 34°36' E 135°18'0 0.0
2017-Oct-01 04:25N 34°36' E 135°18'0 0.1
2017-Oct-01 03:55N 34°36' E 135°18'0 0.0
2017-Oct-01 03:25N 34°36' E 135°18'0 0.0
2017-Oct-01 02:49N 34°36' E 135°18'19 0.8
2017-Sep-30 02:00N 34°37' E 134°55'712.3
2017-Sep-30 01:28N 34°40' E 134°48'1 0.4
2017-Sep-29 22:36N 34°41' E 134°47'0 0.9
2017-Sep-29 22:30N 34°41' E 134°47'1 0.0
2017-Sep-28 12:10N 34°41' E 134°48'1 5.6
2017-Sep-28 12:00N 34°40' E 134°49'0 0.1
2017-Sep-28 05:24N 34°40' E 134°49'0 0.0
2017-Sep-28 05:00N 34°40' E 134°49'0 0.1
2017-Sep-28 04:06N 34°40' E 134°49'0 0.0
2017-Sep-28 03:54N 34°40' E 134°49'0 0.1
2017-Sep-28 01:54N 34°40' E 134°49'0 0.0
2017-Sep-27 22:30N 34°40' E 134°49'0 0.0
2017-Sep-27 22:00N 34°40' E 134°49'0 0.1
2017-Sep-27 21:12N 34°40' E 134°49'0 0.0
2017-Sep-27 21:00N 34°40' E 134°49'0 0.0
2017-Sep-27 19:42N 34°40' E 134°49'0 0.0
2017-Sep-27 19:30N 34°40' E 134°49'0 0.0
2017-Sep-27 18:48N 34°40' E 134°49'0 0.2
2017-Sep-27 18:30N 34°40' E 134°49'0 0.1
2017-Sep-27 18:00N 34°40' E 134°49'0 0.1
2017-Sep-27 17:30N 34°40' E 134°49'0 0.1
2017-Sep-27 17:00N 34°40' E 134°49'0 0.0
2017-Sep-27 16:30N 34°40' E 134°49'0 0.0
2017-Sep-27 16:00N 34°40' E 134°49'0 0.0
2017-Sep-27 15:30N 34°40' E 134°49'0 0.1
2017-Sep-27 14:54N 34°40' E 134°49'0 0.0
2017-Sep-27 14:30N 34°40' E 134°49'0 0.0
2017-Sep-27 14:00N 34°40' E 134°49'0 0.0
2017-Sep-27 13:30N 34°40' E 134°49'0 0.1
2017-Sep-27 13:00N 34°40' E 134°49'0 0.1
2017-Sep-27 12:30N 34°40' E 134°49'0 0.1
2017-Sep-27 11:48N 34°40' E 134°49'0 0.2
2017-Sep-27 11:30N 34°40' E 134°49'0 0.0
2017-Sep-27 11:00N 34°40' E 134°49'0 0.0
2017-Sep-27 01:30N 34°40' E 134°49'0 0.0
2017-Sep-27 00:54N 34°40' E 134°49'0 0.1
2017-Sep-27 00:30N 34°40' E 134°49'0 0.1
2017-Sep-26 22:18N 34°40' E 134°49'0 0.0
2017-Sep-26 20:30N 34°40' E 134°49'0 0.0
2017-Sep-26 20:00N 34°40' E 134°49'0 0.1
2017-Sep-26 19:30N 34°40' E 134°49'0 0.1
2017-Sep-26 18:42N 34°40' E 134°49'0 0.0
2017-Sep-26 15:54N 34°40' E 134°49'0 0.1
2017-Sep-26 14:30N 34°40' E 134°49'0 0.0
2017-Sep-26 14:00N 34°40' E 134°49'0 0.0
2017-Sep-26 09:18N 34°40' E 134°49'0 0.0
2017-Sep-26 08:48N 34°40' E 134°49'0 0.0
2017-Sep-26 00:48N 34°40' E 134°49'0 0.0
2017-Sep-26 00:30N 34°40' E 134°49'0 0.1
2017-Sep-26 00:00N 34°40' E 134°49'0 0.1
2017-Sep-25 23:30N 34°40' E 134°49'0 0.0
2017-Sep-25 21:30N 34°40' E 134°49'0 0.1
2017-Sep-25 21:00N 34°40' E 134°49'0 0.0
2017-Sep-25 20:30N 34°40' E 134°49'0 0.0
2017-Sep-25 19:54N 34°40' E 134°49'0 0.0
2017-Sep-25 19:24N 34°40' E 134°49'0 0.0
2017-Sep-25 19:00N 34°40' E 134°49'0 0.0
2017-Sep-25 18:30N 34°40' E 134°49'0 0.1
2017-Sep-25 18:00N 34°40' E 134°49'0 0.0
2017-Sep-25 16:42N 34°40' E 134°49'0 0.3
2017-Sep-25 16:30N 34°40' E 134°49'0 0.0
2017-Sep-25 16:00N 34°40' E 134°49'0 0.1
2017-Sep-25 15:24N 34°40' E 134°49'0 0.0
2017-Sep-25 15:00N 34°40' E 134°49'0 0.0
2017-Sep-25 14:30N 34°40' E 134°49'0 0.0
2017-Sep-25 12:54N 34°40' E 134°49'0 0.2
2017-Sep-25 12:30N 34°40' E 134°49'0 0.1
2017-Sep-25 12:00N 34°40' E 134°49'0 0.0
2017-Sep-25 08:30N 34°40' E 134°49'0 0.0
2017-Sep-25 07:00N 34°40' E 134°49'0 0.0
2017-Sep-25 06:24N 34°40' E 134°49'0 0.0
2017-Sep-25 04:36N 34°40' E 134°49'0 0.1
2017-Sep-25 04:30N 34°40' E 134°49'0 0.1
2017-Sep-25 04:00N 34°40' E 134°49'0 0.1
2017-Sep-25 03:12N 34°40' E 134°49'0 0.1
2017-Sep-25 02:48N 34°40' E 134°49'0 0.0
2017-Sep-25 02:18N 34°40' E 134°49'0 0.0
2017-Sep-25 02:00N 34°40' E 134°49'0 0.0
2017-Sep-25 01:30N 34°40' E 134°49'0 0.1
2017-Sep-25 01:00N 34°40' E 134°49'0 0.1
2017-Sep-25 00:24N 34°40' E 134°49'0 0.0
2017-Sep-24 23:54N 34°40' E 134°49'0 0.1
2017-Sep-24 23:30N 34°40' E 134°49'0 0.1
2017-Sep-24 23:00N 34°40' E 134°49'0 0.1
2017-Sep-24 21:12N 34°40' E 134°49'0 0.0
2017-Sep-24 21:00N 34°40' E 134°49'0 0.0
2017-Sep-24 20:30N 34°40' E 134°49'0 0.0
2017-Sep-24 20:00N 34°40' E 134°49'0 0.0
2017-Sep-24 19:24N 34°40' E 134°49'0 0.0
2017-Sep-24 18:12N 34°40' E 134°49'0 0.0
2017-Sep-24 18:00N 34°40' E 134°49'0 0.1
2017-Sep-24 17:24N 34°40' E 134°49'0 0.0
2017-Sep-24 17:00N 34°40' E 134°49'0 0.0
2017-Sep-24 16:30N 34°40' E 134°49'0 0.1
2017-Sep-24 15:54N 34°40' E 134°49'0 0.3
2017-Sep-24 15:30N 34°40' E 134°49'0 0.1
2017-Sep-24 15:00N 34°40' E 134°49'0 0.0
2017-Sep-24 13:30N 34°40' E 134°49'0 0.0
2017-Sep-24 13:00N 34°40' E 134°49'0 0.0
2017-Sep-24 12:06N 34°40' E 134°49'0 0.0
2017-Sep-24 11:48N 34°40' E 134°49'0 0.1
2017-Sep-24 10:00N 34°40' E 134°49'0 0.0
2017-Sep-24 08:23N 34°40' E 134°49'4 2.8
2017-Sep-24 06:52N 34°37' E 134°53'5 9.9
2017-Sep-24 06:24N 34°37' E 134°58'3 8.6
2017-Sep-24 06:00N 34°37' E 135°02'5 9.6
2017-Sep-24 05:30N 34°35' E 135°08'2 4.4
2017-Sep-24 05:00N 34°33' E 135°08'3 5.7
2017-Sep-24 04:30N 34°30' E 135°06'5 8.7
2017-Sep-24 03:58N 34°26' E 135°04'612.3
2017-Sep-24 03:30N 34°21' E 135°01'612.4
2017-Sep-24 03:00N 34°15' E 134°59'5 9.6
2017-Sep-24 02:30N 34°10' E 135°00'4 7.3
2017-Sep-24 02:00N 34°06' E 135°01'  

Dump ship's entire track history